createdAt,value
2018-05-26T00:02:08.274Z,17.20
2018-05-26T00:04:38.642Z,17.10
2018-05-26T00:07:08.958Z,17.20
2018-05-26T00:09:45.547Z,17.10
2018-05-26T00:12:16.612Z,17.20
2018-05-26T00:14:47.748Z,17.20
2018-05-26T00:17:18.887Z,17.10
2018-05-26T00:19:49.246Z,17.20
2018-05-26T00:22:19.610Z,17.20
2018-05-26T00:25:10.399Z,17.10
2018-05-26T00:27:40.774Z,17.30
2018-05-26T00:30:11.811Z,17.10
2018-05-26T00:32:42.201Z,17.10
2018-05-26T00:35:32.970Z,17.20
2018-05-26T00:38:04.120Z,17.10
2018-05-26T00:40:35.229Z,17.10
2018-05-26T00:43:05.592Z,17.20
2018-05-26T00:45:35.930Z,17.10
2018-05-26T00:48:06.308Z,17.20
2018-05-26T00:50:36.681Z,17.10
2018-05-26T00:53:07.074Z,17.00
2018-05-26T00:55:38.211Z,17.10
2018-05-26T00:58:08.575Z,17.10
2018-05-26T01:00:39.188Z,17.00
2018-05-26T01:03:10.318Z,16.90
2018-05-26T01:05:41.677Z,16.90
2018-05-26T01:08:12.064Z,16.90
2018-05-26T01:10:42.424Z,17.10
2018-05-26T01:13:13.557Z,17.00
2018-05-26T01:15:43.945Z,17.00
2018-05-26T01:18:33.688Z,17.00
2018-05-26T01:21:04.075Z,17.00
2018-05-26T01:23:34.391Z,17.00
2018-05-26T01:26:04.764Z,16.80
2018-05-26T01:28:35.881Z,16.80
2018-05-26T01:31:06.251Z,16.90
2018-05-26T01:33:36.616Z,16.90
2018-05-26T01:36:07.003Z,16.90
2018-05-26T01:38:37.379Z,16.90
2018-05-26T01:41:07.742Z,17.00
2018-05-26T01:43:38.317Z,16.90
2018-05-26T01:48:51.946Z,16.70
2018-05-26T01:51:22.317Z,16.70
2018-05-26T01:53:52.686Z,16.70
2018-05-26T01:56:23.077Z,16.80
2018-05-26T01:58:53.447Z,16.80
2018-05-26T02:01:23.759Z,16.80
2018-05-26T02:03:54.103Z,16.70
2018-05-26T02:06:25.498Z,16.90
2018-05-26T02:08:55.866Z,16.70
2018-05-26T02:11:26.477Z,16.70
2018-05-26T02:13:58.318Z,16.60
2018-05-26T02:16:29.362Z,16.70
2018-05-26T02:18:59.762Z,16.70
2018-05-26T02:21:52.313Z,16.70
2018-05-26T02:24:22.713Z,16.70
2018-05-26T02:26:53.078Z,16.80
2018-05-26T02:29:23.441Z,16.70
2018-05-26T02:31:53.835Z,16.70
2018-05-26T02:34:24.197Z,16.60
2018-05-26T02:36:54.562Z,16.60
2018-05-26T02:39:24.954Z,16.50
2018-05-26T02:41:55.321Z,16.40
2018-05-26T02:44:25.698Z,16.50
2018-05-26T02:46:56.839Z,16.50
2018-05-26T02:49:28.674Z,16.60
2018-05-26T02:51:59.039Z,16.60
2018-05-26T02:54:29.372Z,16.70
2018-05-26T02:56:59.731Z,16.70
2018-05-26T02:59:30.096Z,16.70
2018-05-26T03:02:01.202Z,16.80
2018-05-26T03:04:49.193Z,16.70
2018-05-26T03:07:37.859Z,16.70
2018-05-26T03:10:26.019Z,16.70
2018-05-26T03:13:22.722Z,16.60
2018-05-26T03:16:00.295Z,16.70
2018-05-26T03:18:30.693Z,16.70
2018-05-26T03:21:22.475Z,16.70
2018-05-26T03:23:52.865Z,16.60
2018-05-26T03:26:23.244Z,16.70
2018-05-26T03:28:53.595Z,16.70
2018-05-26T03:31:31.141Z,16.70
2018-05-26T03:34:02.219Z,16.70
2018-05-26T03:36:33.613Z,16.70
2018-05-26T03:39:04.009Z,16.70
2018-05-26T03:41:36.365Z,16.60
2018-05-26T03:44:06.739Z,16.70
2018-05-26T03:46:37.118Z,16.70
2018-05-26T03:49:07.485Z,16.60
2018-05-26T03:51:38.871Z,16.60
2018-05-26T03:54:10.031Z,16.70
2018-05-26T03:57:34.744Z,16.70
2018-05-26T04:00:10.643Z,16.70
2018-05-26T04:02:41.007Z,16.60
2018-05-26T04:05:11.386Z,16.70
2018-05-26T04:07:42.053Z,16.60
2018-05-26T04:10:13.180Z,16.70
2018-05-26T04:12:44.314Z,16.70
2018-05-26T04:15:14.699Z,16.60
2018-05-26T04:17:45.061Z,16.60
2018-05-26T04:20:15.427Z,16.60
2018-05-26T04:22:45.769Z,16.70
2018-05-26T04:25:16.137Z,16.70
2018-05-26T04:27:46.498Z,16.70
2018-05-26T04:30:17.641Z,16.80
2018-05-26T04:32:48.771Z,16.80
2018-05-26T04:35:19.949Z,16.80
2018-05-26T04:37:50.301Z,16.80
2018-05-26T04:40:40.035Z,16.80
2018-05-26T04:43:11.191Z,16.70
2018-05-26T04:45:41.544Z,16.70
2018-05-26T04:48:19.241Z,16.70
2018-05-26T04:50:51.649Z,16.80
2018-05-26T04:53:22.010Z,16.80
2018-05-26T04:55:52.731Z,16.90
2018-05-26T04:58:23.862Z,16.80
2018-05-26T05:00:55.251Z,16.80
2018-05-26T05:03:25.633Z,16.90
2018-05-26T05:05:56.004Z,16.90
2018-05-26T05:08:26.313Z,17.00
2018-05-26T05:10:56.705Z,17.00
2018-05-26T05:13:27.066Z,17.00
2018-05-26T05:15:57.433Z,17.00
2018-05-26T05:18:49.228Z,17.00
2018-05-26T05:21:19.587Z,17.10
2018-05-26T05:23:57.085Z,17.00
2018-05-26T05:26:27.445Z,17.10
2018-05-26T05:28:58.568Z,17.10
2018-05-26T05:31:28.896Z,17.10
2018-05-26T05:33:59.459Z,17.20
2018-05-26T05:36:29.768Z,17.20
2018-05-26T05:39:00.411Z,17.30
2018-05-26T05:41:31.540Z,17.30
2018-05-26T05:44:02.193Z,17.30
2018-05-26T05:46:33.360Z,17.30
2018-05-26T05:49:03.717Z,17.30
2018-05-26T05:51:34.074Z,17.30
2018-05-26T05:54:05.228Z,17.40
2018-05-26T05:56:36.464Z,17.30
2018-05-26T05:59:07.492Z,17.40
2018-05-26T06:04:21.104Z,17.50
2018-05-26T06:06:51.492Z,17.40
2018-05-26T06:09:22.631Z,17.50
2018-05-26T06:11:52.986Z,17.50
2018-05-26T06:14:23.364Z,17.70
2018-05-26T06:16:53.715Z,17.60
2018-05-26T06:19:24.849Z,17.80
2018-05-26T06:21:55.990Z,17.80
2018-05-26T06:24:26.648Z,17.90
2018-05-26T06:26:57.782Z,18.10
2018-05-26T06:29:28.872Z,18.30
2018-05-26T06:32:06.545Z,18.30
2018-05-26T06:34:37.963Z,18.50
2018-05-26T06:37:08.267Z,18.70
2018-05-26T06:39:38.638Z,18.60
2018-05-26T06:42:09.028Z,18.60
2018-05-26T06:44:39.401Z,18.60
2018-05-26T06:47:09.761Z,18.70
2018-05-26T06:50:01.557Z,18.80
2018-05-26T06:52:31.865Z,18.90
2018-05-26T06:55:02.237Z,18.60
2018-05-26T06:57:53.005Z,18.50
2018-05-26T07:00:24.180Z,18.50
2018-05-26T07:02:54.481Z,18.50
2018-05-26T07:05:24.860Z,18.50
2018-05-26T07:07:55.227Z,18.60
2018-05-26T07:10:25.584Z,18.60
2018-05-26T07:13:16.381Z,18.50
2018-05-26T07:15:46.724Z,18.50
2018-05-26T07:18:17.080Z,18.60
2018-05-26T07:20:47.728Z,18.60
2018-05-26T07:23:18.862Z,18.90
2018-05-26T07:25:49.999Z,18.90
2018-05-26T07:28:20.450Z,18.90
2018-05-26T07:30:52.797Z,19.20
2018-05-26T07:33:23.152Z,19.40
2018-05-26T07:35:53.542Z,19.60
2018-05-26T07:38:23.899Z,19.70
2018-05-26T07:40:54.260Z,19.70
2018-05-26T07:43:24.649Z,19.80
2018-05-26T07:45:55.796Z,19.90
2018-05-26T07:48:26.104Z,19.90
2018-05-26T07:50:56.491Z,20.00
2018-05-26T07:53:26.857Z,20.10
2018-05-26T07:55:57.227Z,20.00
2018-05-26T07:58:31.722Z,20.10
2018-05-26T08:01:02.039Z,20.40
2018-05-26T08:03:33.177Z,20.50
2018-05-26T08:06:04.333Z,20.50
2018-05-26T08:08:34.697Z,20.50
2018-05-26T08:11:05.257Z,20.50
2018-05-26T08:13:35.648Z,20.50
2018-05-26T08:16:08.066Z,20.80
2018-05-26T08:18:38.427Z,20.80
2018-05-26T08:21:08.810Z,21.00
2018-05-26T08:23:39.196Z,20.80
2018-05-26T08:26:09.552Z,20.90
2018-05-26T08:28:39.936Z,20.90
2018-05-26T08:31:10.303Z,21.20
2018-05-26T08:33:40.675Z,21.30
2018-05-26T08:36:12.008Z,21.60
2018-05-26T08:38:43.856Z,21.50
2018-05-26T08:41:14.224Z,21.40
2018-05-26T08:43:44.615Z,21.70
2018-05-26T08:46:14.980Z,22.00
2018-05-26T08:48:45.353Z,22.00
2018-05-26T08:51:15.740Z,22.00
2018-05-26T08:53:46.047Z,22.10
2018-05-26T08:56:16.407Z,22.20
2018-05-26T08:58:46.806Z,22.20
2018-05-26T09:01:17.202Z,22.00
2018-05-26T09:03:47.604Z,22.10
2018-05-26T09:06:18.032Z,22.40
2018-05-26T09:08:48.352Z,22.40
2018-05-26T09:11:18.810Z,22.40
2018-05-26T09:13:49.841Z,22.20
2018-05-26T09:16:20.220Z,22.30
2018-05-26T09:18:50.533Z,22.50
2018-05-26T09:21:20.932Z,22.60
2018-05-26T09:23:52.069Z,22.70
2018-05-26T09:26:22.429Z,22.70
2018-05-26T09:28:52.827Z,23.00
2018-05-26T09:31:23.229Z,22.90
2018-05-26T09:33:54.280Z,22.90
2018-05-26T09:36:24.667Z,22.90
2018-05-26T09:38:55.026Z,23.20
2018-05-26T09:41:25.403Z,23.20
2018-05-26T09:43:55.789Z,23.20
2018-05-26T09:46:26.163Z,23.30
2018-05-26T09:48:56.465Z,23.50
2018-05-26T09:51:27.629Z,23.40
2018-05-26T09:53:58.001Z,23.40
2018-05-26T09:56:28.383Z,23.50
2018-05-26T09:58:58.753Z,23.50
2018-05-26T10:01:29.120Z,23.50
2018-05-26T10:03:59.491Z,23.50
2018-05-26T10:06:29.887Z,23.60
2018-05-26T10:09:00.246Z,23.60
2018-05-26T10:11:31.645Z,23.70
2018-05-26T10:16:47.132Z,24.00
2018-05-26T10:19:19.393Z,24.00
2018-05-26T10:21:49.748Z,23.90
2018-05-26T10:24:20.367Z,24.00
2018-05-26T10:26:51.525Z,24.00
2018-05-26T10:29:21.898Z,24.00
2018-05-26T10:32:13.691Z,24.00
2018-05-26T10:34:44.298Z,23.80
2018-05-26T10:37:15.428Z,24.00
2018-05-26T10:39:45.806Z,24.00
2018-05-26T10:42:18.219Z,24.10
2018-05-26T10:44:48.576Z,24.20
2018-05-26T10:47:18.966Z,24.30
2018-05-26T10:49:49.332Z,24.40
2018-05-26T10:52:19.699Z,24.20
2018-05-26T10:54:50.077Z,23.90
2018-05-26T10:57:20.436Z,23.80
2018-05-26T10:59:58.176Z,23.60
2018-05-26T11:02:28.548Z,23.50
2018-05-26T11:04:58.905Z,23.60
2018-05-26T11:07:29.305Z,24.20
2018-05-26T11:09:59.908Z,24.40
2018-05-26T11:12:31.739Z,24.80
2018-05-26T11:15:02.125Z,24.70
2018-05-26T11:17:32.480Z,24.70
2018-05-26T11:20:02.848Z,24.40
2018-05-26T11:22:33.244Z,24.60
2018-05-26T11:25:04.628Z,24.90
2018-05-26T11:27:34.996Z,25.30
2018-05-26T11:30:05.385Z,25.30
2018-05-26T11:32:36.006Z,25.30
2018-05-26T11:35:06.389Z,25.20
2018-05-26T11:37:36.722Z,25.00
2018-05-26T11:40:07.079Z,24.80
2018-05-26T11:42:38.210Z,25.30
2018-05-26T11:45:09.344Z,25.30
2018-05-26T11:47:39.702Z,25.20
2018-05-26T11:50:10.061Z,25.00
2018-05-26T11:52:46.584Z,25.00
2018-05-26T11:55:18.999Z,24.90
2018-05-26T11:57:49.365Z,25.00
2018-05-26T12:00:20.782Z,24.90
2018-05-26T12:02:52.155Z,24.70
2018-05-26T12:05:22.536Z,24.60
2018-05-26T12:07:54.828Z,24.50
2018-05-26T12:10:30.303Z,24.60
2018-05-26T12:13:00.878Z,24.80
2018-05-26T12:15:31.501Z,25.00
2018-05-26T12:18:02.851Z,25.30
2018-05-26T12:20:33.955Z,25.50
2018-05-26T12:23:04.265Z,25.50
2018-05-26T12:25:34.632Z,25.20
2018-05-26T12:28:05.018Z,25.00
2018-05-26T12:30:36.432Z,25.00
2018-05-26T12:33:06.788Z,25.00
2018-05-26T12:35:37.181Z,25.00
2018-05-26T12:38:07.548Z,25.10
2018-05-26T12:40:37.926Z,25.00
2018-05-26T12:43:09.090Z,24.80
2018-05-26T12:45:39.453Z,24.80
2018-05-26T12:48:09.808Z,24.70
2018-05-26T12:50:40.958Z,24.50
2018-05-26T12:53:12.088Z,24.40
2018-05-26T12:55:42.395Z,24.50
2018-05-26T12:58:12.790Z,24.50
2018-05-26T13:00:43.096Z,24.50
2018-05-26T13:03:13.405Z,24.50
2018-05-26T13:05:43.785Z,24.60
2018-05-26T13:08:14.368Z,24.60
2018-05-26T13:10:45.491Z,24.70
2018-05-26T13:13:15.884Z,24.70
2018-05-26T13:16:10.397Z,24.80
2018-05-26T13:18:40.792Z,25.00
2018-05-26T13:21:11.152Z,25.10
2018-05-26T13:23:41.525Z,25.00
2018-05-26T13:26:12.137Z,25.00
2018-05-26T13:28:43.271Z,24.60
2018-05-26T13:31:13.642Z,24.60
2018-05-26T13:33:44.028Z,24.60
2018-05-26T13:36:14.385Z,24.50
2018-05-26T13:38:44.768Z,24.50
2018-05-26T13:41:15.187Z,24.30
2018-05-26T13:43:45.513Z,24.30
2018-05-26T13:46:15.891Z,24.50
2018-05-26T13:48:46.311Z,24.60
2018-05-26T13:51:16.822Z,24.40
2018-05-26T13:53:52.798Z,24.40
2018-05-26T13:56:23.256Z,24.40
2018-05-26T13:58:53.588Z,24.20
2018-05-26T14:01:23.988Z,24.10
2018-05-26T14:03:54.378Z,24.10
2018-05-26T14:06:25.522Z,24.10
2018-05-26T14:08:55.921Z,24.10
2018-05-26T14:11:26.315Z,24.20
2018-05-26T14:13:56.729Z,24.20
2018-05-26T14:16:27.142Z,24.30
2018-05-26T14:18:58.288Z,24.50
2018-05-26T14:21:28.667Z,24.40
2018-05-26T14:23:59.117Z,24.50
2018-05-26T14:26:29.504Z,24.40
2018-05-26T14:29:05.033Z,24.40
2018-05-26T14:31:35.414Z,24.30
2018-05-26T14:36:53.441Z,24.10
2018-05-26T14:39:23.831Z,24.10
2018-05-26T14:41:54.202Z,24.10
2018-05-26T14:44:24.617Z,24.10
2018-05-26T14:46:59.105Z,24.10
2018-05-26T14:49:30.214Z,24.00
2018-05-26T14:52:00.599Z,24.10
2018-05-26T14:54:30.981Z,24.00
2018-05-26T14:57:01.386Z,24.10
2018-05-26T14:59:31.779Z,24.30
2018-05-26T15:02:02.162Z,24.30
2018-05-26T15:04:32.576Z,24.40
2018-05-26T15:07:02.970Z,24.50
2018-05-26T15:09:40.732Z,24.50
2018-05-26T15:12:11.110Z,24.50
2018-05-26T15:14:41.490Z,24.50
2018-05-26T15:17:11.894Z,24.50
2018-05-26T15:19:42.283Z,24.50
2018-05-26T15:22:16.776Z,24.50
2018-05-26T15:24:47.155Z,24.40
2018-05-26T15:27:17.538Z,24.40
2018-05-26T15:29:48.259Z,24.40
2018-05-26T15:32:18.660Z,24.50
2018-05-26T15:34:48.987Z,24.50
2018-05-26T15:37:20.166Z,25.00
2018-05-26T15:39:50.741Z,25.00
2018-05-26T15:42:21.173Z,25.20
2018-05-26T15:44:51.543Z,25.30
2018-05-26T15:47:21.855Z,25.30
2018-05-26T15:49:52.238Z,25.20
2018-05-26T15:52:28.569Z,25.20
2018-05-26T15:54:58.958Z,25.30
2018-05-26T15:57:30.108Z,25.30
2018-05-26T16:00:00.532Z,25.30
2018-05-26T16:02:30.881Z,25.20
2018-05-26T16:05:01.250Z,25.30
2018-05-26T16:07:31.594Z,25.30
2018-05-26T16:10:01.978Z,25.30
2018-05-26T16:12:32.373Z,25.30
2018-05-26T16:15:03.010Z,25.20
2018-05-26T16:17:33.383Z,25.30
2018-05-26T16:20:03.759Z,25.30
2018-05-26T16:22:34.366Z,25.20
2018-05-26T16:25:06.810Z,25.20
2018-05-26T16:27:43.293Z,25.20
2018-05-26T16:30:13.694Z,25.20
2018-05-26T16:32:49.230Z,25.10
2018-05-26T16:35:19.608Z,25.20
2018-05-26T16:37:49.993Z,25.10
2018-05-26T16:40:20.410Z,25.10
2018-05-26T16:42:50.974Z,25.00
2018-05-26T16:45:21.383Z,25.10
2018-05-26T16:47:51.762Z,24.90
2018-05-26T16:50:22.147Z,25.00
2018-05-26T16:52:53.541Z,24.90
2018-05-26T16:55:24.691Z,24.80
2018-05-26T16:57:55.068Z,24.80
2018-05-26T17:00:25.391Z,24.80
2018-05-26T17:02:55.769Z,24.80
2018-05-26T17:05:26.890Z,24.70
2018-05-26T17:07:57.251Z,24.70
2018-05-26T17:10:27.636Z,24.70
2018-05-26T17:12:58.755Z,24.80
2018-05-26T17:15:48.510Z,24.70
2018-05-26T17:18:18.812Z,24.70
2018-05-26T17:20:49.936Z,24.70
2018-05-26T17:23:20.297Z,24.70
2018-05-26T17:25:50.658Z,24.60
2018-05-26T17:28:22.182Z,24.50
2018-05-26T17:30:52.606Z,24.60
2018-05-26T17:33:22.962Z,24.70
2018-05-26T17:35:53.352Z,24.70
2018-05-26T17:38:23.743Z,24.70
2018-05-26T17:40:54.300Z,24.80
2018-05-26T17:43:25.546Z,24.60
2018-05-26T17:45:56.596Z,24.60
2018-05-26T17:48:26.963Z,24.60
2018-05-26T17:50:57.336Z,24.60
2018-05-26T17:53:28.490Z,24.60
2018-05-26T17:55:59.064Z,24.60
2018-05-26T17:58:29.427Z,24.60
2018-05-26T18:00:59.823Z,24.50
2018-05-26T18:03:30.193Z,24.40
2018-05-26T18:06:01.321Z,24.40
2018-05-26T18:08:32.585Z,24.40
2018-05-26T18:11:02.846Z,24.40
2018-05-26T18:13:39.365Z,24.30
2018-05-26T18:16:10.487Z,24.20
2018-05-26T18:18:40.861Z,24.20
2018-05-26T18:21:11.257Z,24.20
2018-05-26T18:23:42.289Z,24.10
2018-05-26T18:26:12.659Z,24.20
2018-05-26T18:28:42.987Z,24.10
2018-05-26T18:31:13.342Z,24.10
2018-05-26T18:33:44.748Z,24.00
2018-05-26T18:36:16.026Z,24.00
2018-05-26T18:38:49.450Z,24.00
2018-05-26T18:44:08.059Z,23.90
2018-05-26T18:46:38.431Z,24.00
2018-05-26T18:49:14.944Z,23.90
2018-05-26T18:51:46.016Z,23.80
2018-05-26T18:54:16.457Z,23.80
2018-05-26T18:56:48.909Z,23.80
2018-05-26T18:59:21.311Z,23.70
2018-05-26T19:01:51.672Z,23.70
2018-05-26T19:04:22.996Z,23.70
2018-05-26T19:07:00.670Z,23.60
2018-05-26T19:09:31.382Z,23.60
2018-05-26T19:12:01.757Z,23.60
2018-05-26T19:14:39.312Z,23.60
2018-05-26T19:17:09.670Z,23.60
2018-05-26T19:19:45.181Z,23.60
2018-05-26T19:22:15.548Z,23.60
2018-05-26T19:24:47.969Z,23.50
2018-05-26T19:27:19.125Z,23.50
2018-05-26T19:29:49.493Z,23.40
2018-05-26T19:32:21.892Z,23.40
2018-05-26T19:34:52.283Z,23.40
2018-05-26T19:37:22.651Z,23.40
2018-05-26T19:39:52.957Z,23.40
2018-05-26T19:42:23.633Z,23.40
2018-05-26T19:44:54.765Z,23.40
2018-05-26T19:47:25.891Z,23.30
2018-05-26T19:49:56.334Z,23.30
2018-05-26T19:52:26.645Z,23.30
2018-05-26T19:54:57.007Z,23.30
2018-05-26T19:57:27.396Z,23.20
2018-05-26T19:59:58.693Z,23.10
2018-05-26T20:02:29.066Z,23.10
2018-05-26T20:04:59.453Z,23.00
2018-05-26T20:07:30.843Z,22.80
2018-05-26T20:10:01.200Z,22.70
2018-05-26T20:12:32.550Z,22.60
2018-05-26T20:15:03.684Z,22.70
2018-05-26T20:17:34.816Z,22.90
2018-05-26T20:20:05.205Z,22.80
2018-05-26T20:22:37.625Z,22.90
2018-05-26T20:25:07.991Z,22.90
2018-05-26T20:27:38.379Z,23.00
2018-05-26T20:30:09.503Z,23.00
2018-05-26T20:32:39.864Z,22.90
2018-05-26T20:35:10.268Z,22.90
2018-05-26T20:37:40.696Z,22.90
2018-05-26T20:40:11.031Z,22.60
2018-05-26T20:42:42.840Z,22.30
2018-05-26T20:45:16.272Z,22.30
2018-05-26T20:47:46.638Z,22.30
2018-05-26T20:50:17.024Z,22.20
2018-05-26T20:52:47.386Z,22.20
2018-05-26T20:55:17.744Z,22.20
2018-05-26T20:58:07.497Z,22.20
2018-05-26T21:00:37.871Z,22.20
2018-05-26T21:03:08.232Z,22.10
2018-05-26T21:05:39.391Z,22.00
2018-05-26T21:08:09.753Z,22.00
2018-05-26T21:10:40.118Z,21.90
2018-05-26T21:13:11.214Z,21.80
2018-05-26T21:15:59.911Z,21.70
2018-05-26T21:18:30.292Z,21.80
2018-05-26T21:21:08.023Z,21.80
2018-05-26T21:23:39.385Z,21.60
2018-05-26T21:26:10.530Z,21.60
2018-05-26T21:28:41.663Z,21.50
2018-05-26T21:31:12.048Z,21.50
2018-05-26T21:33:44.455Z,21.50
2018-05-26T21:36:14.808Z,21.40
2018-05-26T21:38:45.958Z,21.40
2018-05-26T21:41:17.085Z,21.30
2018-05-26T21:43:47.445Z,21.30
2018-05-26T21:46:17.832Z,21.20
2018-05-26T21:48:49.179Z,21.10
2018-05-26T21:51:19.544Z,21.00
2018-05-26T21:53:49.935Z,21.20
2018-05-26T21:56:20.295Z,21.20
2018-05-26T21:58:50.664Z,21.00
2018-05-26T22:01:21.056Z,21.00
2018-05-26T22:03:51.413Z,20.90
2018-05-26T22:06:21.772Z,20.70
2018-05-26T22:08:52.917Z,20.70
2018-05-26T22:11:25.061Z,20.70
2018-05-26T22:13:55.368Z,20.60
2018-05-26T22:16:27.806Z,20.70
2018-05-26T22:18:58.177Z,20.70
2018-05-26T22:21:28.539Z,20.60
2018-05-26T22:23:59.687Z,20.60
2018-05-26T22:26:30.056Z,20.60
2018-05-26T22:29:19.815Z,20.40
2018-05-26T22:31:50.173Z,20.40
2018-05-26T22:34:39.928Z,20.50
2018-05-26T22:37:10.288Z,20.30
2018-05-26T22:39:40.646Z,20.40
2018-05-26T22:42:11.791Z,20.30
2018-05-26T22:44:42.921Z,20.40
2018-05-26T22:47:13.283Z,20.40
2018-05-26T22:49:43.672Z,20.50
2018-05-26T22:52:14.046Z,20.40
2018-05-26T22:54:44.407Z,20.50
2018-05-26T22:57:14.782Z,20.50
2018-05-26T23:02:32.359Z,20.60
2018-05-26T23:05:06.814Z,20.60
2018-05-26T23:07:37.200Z,20.50
2018-05-26T23:10:07.568Z,20.40
2018-05-26T23:12:37.929Z,20.50
2018-05-26T23:15:09.073Z,20.40
2018-05-26T23:17:41.421Z,20.40
2018-05-26T23:20:11.786Z,20.50
2018-05-26T23:22:42.161Z,20.50
2018-05-26T23:25:12.528Z,20.50
2018-05-26T23:27:42.894Z,20.60
2018-05-26T23:30:16.364Z,20.40
2018-05-26T23:32:46.720Z,20.40
2018-05-26T23:35:18.129Z,20.40
2018-05-26T23:37:48.532Z,20.40
2018-05-26T23:40:19.661Z,20.20
2018-05-26T23:42:50.032Z,20.20
2018-05-26T23:45:20.417Z,20.20
2018-05-26T23:47:50.788Z,20.10
2018-05-26T23:50:21.162Z,20.10
2018-05-26T23:52:51.573Z,20.00
2018-05-26T23:55:40.285Z,20.00
2018-05-26T23:58:10.668Z,19.90
